createdAt,value
2023-03-08T00:02:01.217Z,65.06
2023-03-08T00:04:29.689Z,64.83
2023-03-08T00:06:57.804Z,64.88
2023-03-08T00:09:30.148Z,64.95
2023-03-08T00:11:58.143Z,64.98
2023-03-08T00:14:26.463Z,64.67
2023-03-08T00:16:55.861Z,64.69
2023-03-08T00:19:23.879Z,64.75
2023-03-08T00:21:52.417Z,64.87
2023-03-08T00:24:25.631Z,64.81
2023-03-08T00:26:53.882Z,64.56
2023-03-08T00:29:22.127Z,64.27
2023-03-08T00:31:51.773Z,64.14
2023-03-08T00:34:21.274Z,64.38
2023-03-08T00:36:49.438Z,64.77
2023-03-08T00:39:19.264Z,65.00
2023-03-08T00:41:47.335Z,65.07
2023-03-08T00:44:15.457Z,65.30
2023-03-08T00:46:44.324Z,65.35
2023-03-08T00:49:15.037Z,65.36
2023-03-08T00:51:43.317Z,65.39
2023-03-08T00:54:11.589Z,65.45
2023-03-08T00:56:41.196Z,65.42
2023-03-08T00:59:09.250Z,65.41
2023-03-08T01:01:39.701Z,65.78
2023-03-08T01:04:09.863Z,65.99
2023-03-08T01:06:39.747Z,66.02
2023-03-08T01:09:12.204Z,65.90
2023-03-08T01:11:41.095Z,65.92
2023-03-08T01:14:09.418Z,65.97
2023-03-08T01:16:37.852Z,65.84
2023-03-08T01:19:06.104Z,65.81
2023-03-08T01:21:34.624Z,65.73
2023-03-08T01:24:03.091Z,65.72
2023-03-08T01:26:31.778Z,65.80
2023-03-08T01:29:00.057Z,65.96
2023-03-08T01:31:30.173Z,66.15
2023-03-08T01:34:00.431Z,66.16
2023-03-08T01:36:28.792Z,66.27
2023-03-08T01:39:00.532Z,66.27
2023-03-08T01:41:30.197Z,66.26
2023-03-08T01:43:58.518Z,66.34
2023-03-08T01:46:31.303Z,66.15
2023-03-08T01:49:29.277Z,66.02
2023-03-08T01:52:16.551Z,66.06
2023-03-08T01:54:47.139Z,65.85
2023-03-08T01:57:37.848Z,65.70
2023-03-08T02:00:22.952Z,65.56
2023-03-08T02:03:01.620Z,65.35
2023-03-08T02:05:30.929Z,65.27
2023-03-08T02:08:05.959Z,65.19
2023-03-08T02:10:35.973Z,65.00
2023-03-08T02:13:07.987Z,65.02
2023-03-08T02:15:38.982Z,65.08
2023-03-08T02:18:07.566Z,65.18
2023-03-08T02:20:40.660Z,65.25
2023-03-08T02:23:10.674Z,65.27
2023-03-08T02:25:39.157Z,65.22
2023-03-08T02:28:09.688Z,65.28
2023-03-08T02:30:38.284Z,65.22
2023-03-08T02:33:07.573Z,65.01
2023-03-08T02:35:36.686Z,64.94
2023-03-08T02:38:05.852Z,65.01
2023-03-08T02:40:38.449Z,64.86
2023-03-08T02:43:07.602Z,64.81
2023-03-08T02:45:36.345Z,64.78
2023-03-08T02:48:05.421Z,64.58
2023-03-08T02:50:33.495Z,64.52
2023-03-08T02:53:04.340Z,64.20
2023-03-08T02:55:37.141Z,64.08
2023-03-08T02:58:10.169Z,63.93
2023-03-08T03:00:39.093Z,63.80
2023-03-08T03:03:08.791Z,63.38
2023-03-08T03:05:44.663Z,63.20
2023-03-08T03:08:16.928Z,62.93
2023-03-08T03:10:46.126Z,62.48
2023-03-08T03:13:17.116Z,62.18
2023-03-08T03:15:45.879Z,62.07
2023-03-08T03:18:16.379Z,61.73
2023-03-08T03:20:44.560Z,61.45
2023-03-08T03:23:12.833Z,61.02
2023-03-08T03:25:46.648Z,60.67
2023-03-08T03:28:16.320Z,60.51
2023-03-08T03:30:46.083Z,60.39
2023-03-08T03:33:15.978Z,60.29
2023-03-08T03:35:44.551Z,60.17
2023-03-08T03:38:12.650Z,60.18
2023-03-08T03:40:44.792Z,60.15
2023-03-08T03:43:13.485Z,59.99
2023-03-08T03:45:41.902Z,60.00
2023-03-08T03:48:11.265Z,59.91
2023-03-08T03:50:40.156Z,59.87
2023-03-08T03:53:13.862Z,59.78
2023-03-08T03:55:42.658Z,59.68
2023-03-08T03:58:17.175Z,59.50
2023-03-08T04:01:00.984Z,59.27
2023-03-08T04:03:32.401Z,59.24
2023-03-08T04:06:31.267Z,59.22
2023-03-08T04:09:06.803Z,58.84
2023-03-08T04:11:38.466Z,58.66
2023-03-08T04:14:08.077Z,58.57
2023-03-08T04:16:40.050Z,58.43
2023-03-08T04:19:14.254Z,58.58
2023-03-08T04:21:48.216Z,58.54
2023-03-08T04:24:17.672Z,58.56
2023-03-08T04:26:47.787Z,58.68
2023-03-08T04:29:24.779Z,58.81
2023-03-08T04:31:55.820Z,58.79
2023-03-08T04:34:24.494Z,58.91
2023-03-08T04:36:53.907Z,58.99
2023-03-08T04:39:22.297Z,59.12
2023-03-08T04:41:50.658Z,59.23
2023-03-08T04:44:26.765Z,59.19
2023-03-08T04:46:56.498Z,59.14
2023-03-08T04:49:31.227Z,59.22
2023-03-08T04:52:01.930Z,58.97
2023-03-08T04:54:30.575Z,58.81
2023-03-08T04:57:05.099Z,58.68
2023-03-08T04:59:35.524Z,58.66
2023-03-08T05:02:04.637Z,58.57
2023-03-08T05:04:34.351Z,58.59
2023-03-08T05:07:02.513Z,58.42
2023-03-08T05:09:33.137Z,58.49
2023-03-08T05:12:01.523Z,58.35
2023-03-08T05:14:37.788Z,58.33
2023-03-08T05:17:06.062Z,58.31
2023-03-08T05:19:35.767Z,58.38
2023-03-08T05:22:06.388Z,58.54
2023-03-08T05:24:35.157Z,58.63
2023-03-08T05:27:10.017Z,58.54
2023-03-08T05:29:38.296Z,58.46
2023-03-08T05:32:07.210Z,58.31
2023-03-08T05:34:35.976Z,58.20
2023-03-08T05:37:04.970Z,58.02
2023-03-08T05:39:35.393Z,57.91
2023-03-08T05:42:12.474Z,57.77
2023-03-08T05:44:42.297Z,57.52
2023-03-08T05:47:12.104Z,57.56
2023-03-08T05:49:43.361Z,57.60
2023-03-08T05:52:13.057Z,57.57
2023-03-08T05:54:41.234Z,57.52
2023-03-08T05:57:13.295Z,57.69
2023-03-08T05:59:41.674Z,57.57
2023-03-08T06:02:14.374Z,57.62
2023-03-08T06:04:48.772Z,57.65
2023-03-08T06:07:22.889Z,57.76
2023-03-08T06:09:56.485Z,57.76
2023-03-08T06:12:30.090Z,57.73
2023-03-08T06:15:00.418Z,57.79
2023-03-08T06:17:34.320Z,57.61
2023-03-08T06:20:03.082Z,57.53
2023-03-08T06:22:32.410Z,57.48
2023-03-08T06:25:04.462Z,57.46
2023-03-08T06:27:35.926Z,57.36
2023-03-08T06:30:08.639Z,57.18
2023-03-08T06:32:37.893Z,57.12
2023-03-08T06:35:07.961Z,57.00
2023-03-08T06:37:38.975Z,56.86
2023-03-08T06:40:09.247Z,56.78
2023-03-08T06:42:41.839Z,56.71
2023-03-08T06:45:13.334Z,56.55
2023-03-08T06:47:41.622Z,56.60
2023-03-08T06:50:10.818Z,56.76
2023-03-08T06:52:40.412Z,56.69
2023-03-08T06:55:11.558Z,56.44
2023-03-08T06:57:39.824Z,56.24
2023-03-08T07:00:11.539Z,55.99
2023-03-08T07:02:40.178Z,56.02
2023-03-08T07:05:08.857Z,56.23
2023-03-08T07:07:37.148Z,56.02
2023-03-08T07:10:06.278Z,56.14
2023-03-08T07:12:36.863Z,56.06
2023-03-08T07:15:10.503Z,55.75
2023-03-08T07:17:43.660Z,55.65
2023-03-08T07:20:13.576Z,55.62
2023-03-08T07:22:44.105Z,55.77
2023-03-08T07:25:13.356Z,55.70
2023-03-08T07:27:43.751Z,55.82
2023-03-08T07:30:14.463Z,55.77
2023-03-08T07:32:43.158Z,55.49
2023-03-08T07:35:13.311Z,55.42
2023-03-08T07:37:46.767Z,55.34
2023-03-08T07:40:16.606Z,55.42
2023-03-08T07:42:45.471Z,55.42
2023-03-08T07:45:29.925Z,55.48
2023-03-08T07:47:58.002Z,55.26
2023-03-08T07:50:26.404Z,55.42
2023-03-08T07:52:57.733Z,55.42
2023-03-08T07:55:27.670Z,55.09
2023-03-08T07:57:56.853Z,54.85
2023-03-08T08:00:26.232Z,54.57
2023-03-08T08:16:45.253Z,54.38
2023-03-08T08:19:14.124Z,53.14
2023-03-08T08:21:41.552Z,52.95
2023-03-08T08:24:08.532Z,52.84
2023-03-08T08:26:35.546Z,52.83
2023-03-08T08:29:02.702Z,53.02
2023-03-08T08:31:33.499Z,52.75
2023-03-08T08:34:00.684Z,52.67
2023-03-08T08:36:27.693Z,53.00
2023-03-08T08:38:54.872Z,52.72
2023-03-08T08:41:22.540Z,52.49
2023-03-08T08:43:51.067Z,52.32
2023-03-08T08:46:18.681Z,52.16
2023-03-08T08:48:45.931Z,52.14
2023-03-08T08:51:13.461Z,51.74
2023-03-08T08:53:40.541Z,51.33
2023-03-08T08:56:26.563Z,51.04
2023-03-08T08:58:59.923Z,51.02
2023-03-08T09:01:29.099Z,51.13
2023-03-08T09:04:16.705Z,51.08
2023-03-08T09:06:45.080Z,50.80
2023-03-08T09:09:12.182Z,50.95
2023-03-08T09:11:53.719Z,51.07
2023-03-08T09:14:22.398Z,50.84
2023-03-08T09:16:49.529Z,50.87
2023-03-08T09:19:16.533Z,50.84
2023-03-08T09:21:43.416Z,50.95
2023-03-08T09:24:11.031Z,50.78
2023-03-08T09:26:40.551Z,50.50
2023-03-08T09:29:07.996Z,50.47
2023-03-08T09:31:36.680Z,50.31
2023-03-08T09:34:08.112Z,50.49
2023-03-08T09:36:36.169Z,50.49
2023-03-08T09:39:04.797Z,50.43
2023-03-08T09:41:43.954Z,50.47
2023-03-08T09:44:48.701Z,50.80
2023-03-08T09:47:25.259Z,51.15
2023-03-08T09:49:53.436Z,51.06
2023-03-08T09:52:38.404Z,50.96
2023-03-08T09:55:12.561Z,50.99
2023-03-08T09:57:46.376Z,50.82
2023-03-08T10:00:20.788Z,50.42
2023-03-08T10:03:17.592Z,50.36
2023-03-08T10:05:47.321Z,50.41
2023-03-08T10:08:30.625Z,50.74
2023-03-08T10:11:16.102Z,51.01
2023-03-08T10:13:46.699Z,50.99
2023-03-08T10:16:24.670Z,51.17
2023-03-08T10:18:58.364Z,51.32
2023-03-08T10:21:26.527Z,51.38
2023-03-08T10:24:04.518Z,51.67
2023-03-08T10:26:31.440Z,51.77
2023-03-08T10:28:58.310Z,51.86
2023-03-08T10:31:30.381Z,51.88
2023-03-08T10:34:10.736Z,52.00
2023-03-08T10:36:52.236Z,52.11
2023-03-08T10:39:19.546Z,52.10
2023-03-08T10:41:52.261Z,52.10
2023-03-08T10:44:39.956Z,52.02
2023-03-08T10:47:29.714Z,52.14
2023-03-08T10:50:13.721Z,51.92
2023-03-08T10:52:41.716Z,51.87
2023-03-08T10:55:08.736Z,51.99
2023-03-08T10:57:36.709Z,52.09
2023-03-08T11:00:20.547Z,52.27
2023-03-08T11:02:49.344Z,52.33
2023-03-08T11:05:28.777Z,52.19
2023-03-08T11:07:57.493Z,52.17
2023-03-08T11:10:26.800Z,52.22
2023-03-08T11:13:08.666Z,52.39
2023-03-08T11:15:39.852Z,52.51
2023-03-08T11:18:25.008Z,52.49
2023-03-08T11:20:55.914Z,52.53
2023-03-08T11:23:32.161Z,52.59
2023-03-08T11:26:37.174Z,52.84
2023-03-08T11:29:12.283Z,52.78
2023-03-08T11:32:04.890Z,52.91
2023-03-08T11:35:05.944Z,52.97
2023-03-08T11:37:39.304Z,52.86
2023-03-08T11:40:13.970Z,52.81
2023-03-08T11:42:53.537Z,52.85
2023-03-08T11:45:27.553Z,52.87
2023-03-08T11:48:03.375Z,52.57
2023-03-08T11:50:37.862Z,52.65
2023-03-08T11:53:20.305Z,52.55
2023-03-08T11:56:12.663Z,52.51
2023-03-08T11:58:51.826Z,52.12
2023-03-08T12:01:23.167Z,51.86
2023-03-08T12:03:54.169Z,51.84
2023-03-08T12:06:32.336Z,51.59
2023-03-08T12:09:07.285Z,51.36
2023-03-08T12:11:46.568Z,51.05
2023-03-08T12:14:17.864Z,50.71
2023-03-08T12:17:03.691Z,50.30
2023-03-08T12:19:30.916Z,49.98
2023-03-08T12:22:08.458Z,49.74
2023-03-08T12:24:38.437Z,49.39
2023-03-08T12:27:27.298Z,48.87
2023-03-08T12:30:10.732Z,49.01
2023-03-08T12:32:38.908Z,48.53
2023-03-08T12:35:31.068Z,48.46
2023-03-08T12:38:07.009Z,48.55
2023-03-08T12:40:46.452Z,47.93
2023-03-08T12:43:19.668Z,47.53
2023-03-08T12:45:58.767Z,47.59
2023-03-08T12:48:35.022Z,47.80
2023-03-08T12:51:24.653Z,47.88
2023-03-08T12:53:52.132Z,47.94
2023-03-08T12:56:33.657Z,48.00
2023-03-08T12:59:22.745Z,48.17
2023-03-08T13:01:56.536Z,48.15
2023-03-08T13:04:38.955Z,48.12
2023-03-08T13:07:10.711Z,48.09
2023-03-08T13:09:46.374Z,47.87
2023-03-08T13:12:14.927Z,47.34
2023-03-08T13:14:43.408Z,46.98
2023-03-08T13:17:29.019Z,46.67
2023-03-08T13:20:01.627Z,46.48
2023-03-08T13:22:41.605Z,46.16
2023-03-08T13:25:17.724Z,46.18
2023-03-08T13:28:03.502Z,46.09
2023-03-08T13:30:35.531Z,46.21
2023-03-08T13:33:28.189Z,46.20
2023-03-08T13:36:01.422Z,46.56
2023-03-08T13:38:36.053Z,47.13
2023-03-08T13:41:06.464Z,47.50
2023-03-08T13:43:35.272Z,47.82
2023-03-08T13:46:04.119Z,47.79
2023-03-08T13:48:36.484Z,47.90
2023-03-08T13:51:03.963Z,47.81
2023-03-08T13:53:36.561Z,47.32
2023-03-08T13:56:05.193Z,46.59
2023-03-08T13:58:39.474Z,45.43
2023-03-08T14:01:18.302Z,44.15
2023-03-08T14:03:45.873Z,42.73
2023-03-08T14:06:20.900Z,40.81
2023-03-08T14:08:47.989Z,37.80
2023-03-08T14:11:22.408Z,36.96
2023-03-08T14:13:57.079Z,35.83
2023-03-08T14:16:26.702Z,34.25
2023-03-08T14:18:54.048Z,33.71
2023-03-08T14:21:25.518Z,32.79
2023-03-08T14:23:53.269Z,32.59
2023-03-08T14:26:32.017Z,32.63
2023-03-08T14:29:05.740Z,32.65
2023-03-08T14:31:32.857Z,31.88
2023-03-08T14:34:03.185Z,31.32
2023-03-08T14:36:31.438Z,31.76
2023-03-08T14:39:01.131Z,32.39
2023-03-08T14:41:35.765Z,32.85
2023-03-08T14:44:03.287Z,33.65
2023-03-08T14:46:30.472Z,34.49
2023-03-08T14:49:04.268Z,35.31
2023-03-08T14:51:39.292Z,36.31
2023-03-08T14:54:41.861Z,37.57
2023-03-08T14:57:20.074Z,38.84
2023-03-08T14:59:47.318Z,39.84
2023-03-08T15:02:15.194Z,40.58
2023-03-08T15:04:42.150Z,41.34
2023-03-08T15:07:18.802Z,41.77
2023-03-08T15:09:47.742Z,42.27
2023-03-08T15:12:14.524Z,42.62
2023-03-08T15:14:41.593Z,42.84
2023-03-08T15:17:09.862Z,43.06
2023-03-08T15:19:37.726Z,43.16
2023-03-08T15:22:05.184Z,43.25
2023-03-08T15:24:32.124Z,42.59
2023-03-08T15:26:59.282Z,42.39
2023-03-08T15:29:28.398Z,42.32
2023-03-08T15:31:55.374Z,42.55
2023-03-08T15:34:22.298Z,42.91
2023-03-08T15:36:51.365Z,43.20
2023-03-08T15:39:19.134Z,43.61
2023-03-08T15:41:47.101Z,44.00
2023-03-08T15:44:14.146Z,44.26
2023-03-08T15:46:42.924Z,44.49
2023-03-08T15:49:10.251Z,44.80
2023-03-08T15:51:37.327Z,45.10
2023-03-08T15:54:05.372Z,45.26
2023-03-08T15:56:32.948Z,45.42
2023-03-08T15:59:00.506Z,45.64
2023-03-08T16:01:27.409Z,45.71
2023-03-08T16:03:55.033Z,45.84
2023-03-08T16:06:22.470Z,46.04
2023-03-08T16:08:49.303Z,46.14
2023-03-08T16:11:19.902Z,46.33
2023-03-08T16:13:49.786Z,46.42
2023-03-08T16:16:16.718Z,46.55
2023-03-08T16:18:47.981Z,46.82
2023-03-08T16:21:15.130Z,46.99
2023-03-08T16:23:41.984Z,47.12
2023-03-08T16:26:16.451Z,47.37
2023-03-08T16:28:45.595Z,47.84
2023-03-08T16:31:12.906Z,47.97
2023-03-08T16:33:40.309Z,47.86
2023-03-08T16:36:07.508Z,47.69
2023-03-08T16:38:38.398Z,47.78
2023-03-08T16:41:13.845Z,48.02
2023-03-08T16:43:49.229Z,48.31
2023-03-08T16:46:20.021Z,48.55
2023-03-08T16:48:53.105Z,48.82
2023-03-08T16:51:23.625Z,48.96
2023-03-08T16:53:50.899Z,49.12
2023-03-08T16:56:23.065Z,49.17
2023-03-08T16:58:50.408Z,49.25
2023-03-08T17:01:26.111Z,49.39
2023-03-08T17:03:54.096Z,49.56
2023-03-08T17:06:21.996Z,49.61
2023-03-08T17:08:51.832Z,49.77
2023-03-08T17:11:23.763Z,49.95
2023-03-08T17:13:55.089Z,50.29
2023-03-08T17:16:27.501Z,50.42
2023-03-08T17:18:54.546Z,50.39
2023-03-08T17:21:21.698Z,50.52
2023-03-08T17:23:50.351Z,50.58
2023-03-08T17:26:18.716Z,50.83
2023-03-08T17:28:46.545Z,50.94
2023-03-08T17:31:15.575Z,51.28
2023-03-08T17:33:43.189Z,51.61
2023-03-08T17:36:13.919Z,51.75
2023-03-08T17:38:41.487Z,52.06
2023-03-08T17:41:10.573Z,52.04
2023-03-08T17:43:41.159Z,52.23
2023-03-08T17:46:11.402Z,52.34
2023-03-08T17:48:38.271Z,52.51
2023-03-08T17:51:10.957Z,52.56
2023-03-08T17:53:42.004Z,52.77
2023-03-08T17:56:14.190Z,52.82
2023-03-08T17:58:41.106Z,52.79
2023-03-08T18:01:14.304Z,52.99
2023-03-08T18:03:41.654Z,53.25
2023-03-08T18:06:15.600Z,53.49
2023-03-08T18:08:43.635Z,53.73
2023-03-08T18:11:10.429Z,53.86
2023-03-08T18:13:38.746Z,53.98
2023-03-08T18:16:07.554Z,54.21
2023-03-08T18:18:34.890Z,54.55
2023-03-08T18:21:12.558Z,54.69
2023-03-08T18:23:42.923Z,54.88
2023-03-08T18:26:11.123Z,55.08
2023-03-08T18:28:37.841Z,55.22
2023-03-08T18:31:08.959Z,55.18
2023-03-08T18:33:36.512Z,55.26
2023-03-08T18:36:03.715Z,55.41
2023-03-08T18:38:30.635Z,55.50
2023-03-08T18:40:57.532Z,55.68
2023-03-08T18:43:27.098Z,55.86
2023-03-08T18:45:55.082Z,55.88
2023-03-08T18:48:22.715Z,56.04
2023-03-08T18:50:49.556Z,56.30
2023-03-08T18:53:18.469Z,56.34
2023-03-08T18:55:56.414Z,56.34
2023-03-08T18:58:25.419Z,56.32
2023-03-08T19:00:58.328Z,56.32
2023-03-08T19:03:29.373Z,56.16
2023-03-08T19:05:56.123Z,56.21
2023-03-08T19:08:24.677Z,56.21
2023-03-08T19:10:52.364Z,56.13
2023-03-08T19:13:20.642Z,56.12
2023-03-08T19:15:50.454Z,56.08
2023-03-08T19:18:17.738Z,56.27
2023-03-08T19:20:44.652Z,56.55
2023-03-08T19:23:11.469Z,56.56
2023-03-08T19:25:58.614Z,56.60
2023-03-08T19:28:26.217Z,56.73
2023-03-08T19:30:53.018Z,56.89
2023-03-08T19:33:31.300Z,56.97
2023-03-08T19:35:59.055Z,57.11
2023-03-08T19:38:26.654Z,57.12
2023-03-08T19:40:53.499Z,57.32
2023-03-08T19:43:21.782Z,57.46
2023-03-08T19:45:49.207Z,57.75
2023-03-08T19:48:16.795Z,57.69
2023-03-08T19:50:45.280Z,57.79
2023-03-08T19:53:12.430Z,57.98
2023-03-08T19:55:53.741Z,58.18
2023-03-08T19:58:20.875Z,58.17
2023-03-08T20:00:47.723Z,58.17
2023-03-08T20:03:15.983Z,58.18
2023-03-08T20:05:47.670Z,58.29
2023-03-08T20:08:15.128Z,58.61
2023-03-08T20:10:42.049Z,58.52
2023-03-08T20:13:10.213Z,58.66
2023-03-08T20:15:37.345Z,58.60
2023-03-08T20:18:04.207Z,58.42
2023-03-08T20:20:31.466Z,58.45
2023-03-08T20:34:15.684Z,59.05
2023-03-08T20:36:48.240Z,58.63
2023-03-08T20:39:18.485Z,58.66
2023-03-08T20:41:46.761Z,58.57
2023-03-08T20:44:15.242Z,58.53
2023-03-08T20:46:44.032Z,58.78
2023-03-08T20:49:16.841Z,59.28
2023-03-08T20:51:46.124Z,59.78
2023-03-08T20:54:14.394Z,59.91
2023-03-08T20:56:43.582Z,59.90
2023-03-08T20:59:12.086Z,59.90
2023-03-08T21:01:42.081Z,59.98
2023-03-08T21:04:10.313Z,60.02
2023-03-08T21:06:38.851Z,60.13
2023-03-08T21:09:06.954Z,60.13
2023-03-08T21:11:35.211Z,60.15
2023-03-08T21:14:03.783Z,60.22
2023-03-08T21:16:33.492Z,60.20
2023-03-08T21:19:03.028Z,60.26
2023-03-08T21:21:34.552Z,60.48
2023-03-08T21:24:16.356Z,60.67
2023-03-08T21:26:44.773Z,61.34
2023-03-08T21:29:14.750Z,61.70
2023-03-08T21:31:44.659Z,61.95
2023-03-08T21:34:13.341Z,62.21
2023-03-08T21:36:44.337Z,62.26
2023-03-08T21:39:12.963Z,62.43
2023-03-08T21:41:43.404Z,62.63
2023-03-08T21:44:14.545Z,62.62
2023-03-08T21:46:44.813Z,62.63
2023-03-08T21:49:18.263Z,62.54
2023-03-08T21:51:46.429Z,62.42
2023-03-08T21:54:15.248Z,62.46
2023-03-08T21:56:43.721Z,62.35
2023-03-08T21:59:13.312Z,62.32
2023-03-08T22:01:41.950Z,62.00
2023-03-08T22:04:10.377Z,61.86
2023-03-08T22:06:38.755Z,62.23
2023-03-08T22:09:10.207Z,62.37
2023-03-08T22:11:38.517Z,62.53
2023-03-08T22:14:07.606Z,62.50
2023-03-08T22:16:41.875Z,62.51
2023-03-08T22:19:10.377Z,62.48
2023-03-08T22:21:38.551Z,62.60
2023-03-08T22:24:10.190Z,63.39
2023-03-08T22:26:43.808Z,63.88
2023-03-08T22:29:11.991Z,64.13
2023-03-08T22:31:41.439Z,64.02
2023-03-08T22:34:11.033Z,63.99
2023-03-08T22:36:47.155Z,63.97
2023-03-08T22:39:15.435Z,64.01
2023-03-08T22:41:43.711Z,64.12
2023-03-08T22:44:16.092Z,64.10
2023-03-08T22:46:48.432Z,64.20
2023-03-08T22:49:17.162Z,64.12
2023-03-08T22:51:45.840Z,64.07
2023-03-08T22:54:18.843Z,64.09
2023-03-08T22:56:48.845Z,64.11
2023-03-08T22:59:17.929Z,64.06
2023-03-08T23:01:46.126Z,63.98
2023-03-08T23:04:14.705Z,64.08
2023-03-08T23:06:43.682Z,64.22
2023-03-08T23:09:12.903Z,64.28
2023-03-08T23:11:45.369Z,64.16
2023-03-08T23:14:16.599Z,64.09
2023-03-08T23:16:46.584Z,64.13
2023-03-08T23:19:17.000Z,64.23
2023-03-08T23:22:05.083Z,64.15
2023-03-08T23:24:34.699Z,64.10
2023-03-08T23:27:04.412Z,64.07
2023-03-08T23:29:32.581Z,64.07
2023-03-08T23:32:01.119Z,64.06
2023-03-08T23:34:31.278Z,64.02
2023-03-08T23:37:05.917Z,64.23
2023-03-08T23:39:36.677Z,64.48
2023-03-08T23:42:06.174Z,64.53
2023-03-08T23:44:38.008Z,64.34
2023-03-08T23:47:06.708Z,64.02
2023-03-08T23:49:34.767Z,63.89
2023-03-08T23:52:03.350Z,63.91
2023-03-08T23:54:35.929Z,64.06
2023-03-08T23:57:04.628Z,64.31
2023-03-08T23:59:33.100Z,64.33
